createdAt,value
2022-10-12T00:01:49.549Z,18.37
2022-10-12T00:04:17.028Z,17.97
2022-10-12T00:06:44.469Z,17.63
2022-10-12T00:09:11.941Z,17.27
2022-10-12T00:11:40.711Z,18.90
2022-10-12T00:14:09.481Z,17.30
2022-10-12T00:16:37.575Z,20.23
2022-10-12T00:19:05.103Z,17.03
2022-10-12T00:21:32.610Z,18.77
2022-10-12T00:24:01.161Z,21.93
2022-10-12T00:26:29.293Z,21.40
2022-10-12T00:28:58.110Z,19.40
2022-10-12T00:31:27.235Z,22.57
2022-10-12T00:33:54.799Z,21.47
2022-10-12T00:36:23.198Z,19.43
2022-10-12T00:38:51.793Z,23.57
2022-10-12T00:41:20.045Z,20.53
2022-10-12T00:43:48.236Z,19.67
2022-10-12T00:46:19.525Z,18.77
2022-10-12T00:48:49.618Z,19.80
2022-10-12T00:51:17.710Z,20.07
2022-10-12T00:53:48.386Z,19.73
2022-10-12T00:56:19.003Z,21.57
2022-10-12T00:58:46.825Z,19.87
2022-10-12T01:01:14.547Z,18.30
2022-10-12T01:03:42.322Z,19.57
2022-10-12T01:06:11.093Z,22.30
2022-10-12T01:08:39.024Z,21.00
2022-10-12T01:11:06.583Z,17.90
2022-10-12T01:13:34.361Z,17.50
2022-10-12T01:16:06.431Z,22.37
2022-10-12T01:18:38.166Z,18.07
2022-10-12T01:21:10.977Z,18.27
2022-10-12T01:23:51.902Z,26.40
2022-10-12T01:26:34.722Z,20.00
2022-10-12T01:29:08.870Z,19.10
2022-10-12T01:31:40.084Z,21.27
2022-10-12T01:34:10.788Z,19.60
2022-10-12T01:36:40.976Z,16.20
2022-10-12T01:39:13.332Z,19.20
2022-10-12T01:41:43.431Z,20.97
2022-10-12T01:44:10.907Z,21.03
2022-10-12T01:46:46.847Z,18.70
2022-10-12T01:49:16.477Z,25.33
2022-10-12T01:51:50.487Z,23.13
2022-10-12T01:54:20.819Z,19.40
2022-10-12T01:56:51.876Z,20.27
2022-10-12T01:59:21.224Z,19.60
2022-10-12T02:01:52.613Z,23.33
2022-10-12T02:04:22.954Z,21.00
2022-10-12T02:06:52.451Z,25.93
2022-10-12T02:09:22.058Z,23.63
2022-10-12T02:11:51.699Z,19.07
2022-10-12T02:14:20.616Z,20.27
2022-10-12T02:16:51.052Z,17.83
2022-10-12T02:19:21.869Z,20.63
2022-10-12T02:21:49.895Z,23.37
2022-10-12T02:24:18.513Z,23.67
2022-10-12T02:26:48.018Z,18.07
2022-10-12T02:29:19.520Z,22.27
2022-10-12T02:31:49.311Z,21.83
2022-10-12T02:34:18.195Z,21.03
2022-10-12T02:36:48.395Z,27.27
2022-10-12T02:39:17.487Z,20.50
2022-10-12T02:41:47.513Z,21.10
2022-10-12T02:44:16.961Z,22.03
2022-10-12T02:46:45.598Z,22.00
2022-10-12T02:49:14.164Z,22.43
2022-10-12T02:51:42.072Z,23.23
2022-10-12T02:54:10.923Z,23.57
2022-10-12T02:56:43.130Z,24.47
2022-10-12T02:59:10.611Z,24.77
2022-10-12T03:01:38.142Z,19.80
2022-10-12T03:04:05.789Z,22.40
2022-10-12T03:06:33.348Z,19.00
2022-10-12T03:09:01.630Z,17.80
2022-10-12T03:11:30.457Z,18.20
2022-10-12T03:13:57.888Z,21.13
2022-10-12T03:16:25.382Z,26.23
2022-10-12T03:18:52.831Z,21.10
2022-10-12T03:21:20.264Z,20.00
2022-10-12T03:23:47.696Z,21.60
2022-10-12T03:26:15.079Z,19.23
2022-10-12T03:28:43.915Z,22.90
2022-10-12T03:31:11.317Z,21.30
2022-10-12T03:33:38.726Z,24.87
2022-10-12T03:36:06.410Z,17.13
2022-10-12T03:38:33.801Z,23.37
2022-10-12T03:41:13.478Z,19.27
2022-10-12T03:43:41.362Z,16.47
2022-10-12T03:46:10.108Z,21.07
2022-10-12T03:48:37.651Z,17.97
2022-10-12T03:51:05.220Z,17.07
2022-10-12T03:53:32.777Z,18.10
2022-10-12T03:56:00.176Z,17.67
2022-10-12T03:58:27.588Z,15.07
2022-10-12T04:00:55.131Z,15.43
2022-10-12T04:03:23.985Z,16.47
2022-10-12T04:05:55.128Z,14.67
2022-10-12T04:08:22.731Z,14.47
2022-10-12T04:10:51.259Z,17.23
2022-10-12T04:13:19.023Z,14.57
2022-10-12T04:15:46.436Z,16.53
2022-10-12T04:18:13.959Z,16.27
2022-10-12T04:20:42.760Z,15.97
2022-10-12T04:23:10.354Z,16.97
2022-10-12T04:25:37.814Z,19.07
2022-10-12T04:28:05.203Z,16.10
2022-10-12T04:30:33.061Z,16.17
2022-10-12T04:33:00.470Z,16.73
2022-10-12T04:35:27.892Z,17.63
2022-10-12T04:37:56.633Z,17.27
2022-10-12T04:40:24.157Z,13.57
2022-10-12T04:42:51.586Z,25.57
2022-10-12T04:45:18.995Z,19.83
2022-10-12T04:47:46.393Z,20.37
2022-10-12T04:50:13.873Z,18.47
2022-10-12T04:52:41.389Z,15.03
2022-10-12T04:55:10.494Z,18.20
2022-10-12T04:57:38.560Z,17.90
2022-10-12T05:00:07.019Z,16.10
2022-10-12T05:02:34.436Z,17.83
2022-10-12T05:05:01.875Z,15.93
2022-10-12T05:07:29.375Z,14.03
2022-10-12T05:09:56.802Z,18.73
2022-10-12T05:12:25.560Z,14.37
2022-10-12T05:14:52.961Z,17.37
2022-10-12T05:17:20.525Z,14.70
2022-10-12T05:19:48.179Z,14.17
2022-10-12T05:22:15.588Z,14.87
2022-10-12T05:24:43.203Z,17.83
2022-10-12T05:27:10.833Z,14.27
2022-10-12T05:29:39.775Z,16.30
2022-10-12T05:32:07.394Z,15.40
2022-10-12T05:34:34.970Z,14.27
2022-10-12T05:37:02.718Z,23.53
2022-10-12T05:39:30.346Z,13.40
2022-10-12T05:41:58.625Z,18.47
2022-10-12T05:44:26.140Z,13.23
2022-10-12T05:46:54.948Z,13.47
2022-10-12T05:49:22.345Z,14.57
2022-10-12T05:51:49.764Z,13.60
2022-10-12T05:54:17.209Z,14.63
2022-10-12T05:56:44.668Z,15.23
2022-10-12T05:59:12.444Z,14.67
2022-10-12T06:01:40.379Z,16.07
2022-10-12T06:04:09.218Z,15.00
2022-10-12T06:06:36.717Z,15.43
2022-10-12T06:09:04.250Z,17.80
2022-10-12T06:11:34.098Z,18.23
2022-10-12T06:14:03.800Z,16.90
2022-10-12T06:16:31.323Z,15.17
2022-10-12T06:18:58.810Z,18.00
2022-10-12T06:21:34.956Z,16.83
2022-10-12T06:24:02.836Z,16.07
2022-10-12T06:26:30.278Z,15.67
2022-10-12T06:28:57.825Z,16.93
2022-10-12T06:31:25.353Z,17.73
2022-10-12T06:33:53.352Z,17.67
2022-10-12T06:36:20.851Z,18.43
2022-10-12T06:38:49.673Z,14.50
2022-10-12T06:41:17.139Z,17.33
2022-10-12T06:43:44.636Z,16.37
2022-10-12T06:46:13.209Z,16.67
2022-10-12T06:48:40.686Z,16.37
2022-10-12T06:51:08.164Z,17.30
2022-10-12T06:53:36.558Z,15.40
2022-10-12T06:56:07.936Z,18.70
2022-10-12T06:58:35.541Z,18.47
2022-10-12T07:01:04.065Z,17.03
2022-10-12T07:03:31.617Z,15.97
2022-10-12T07:06:05.723Z,21.67
2022-10-12T07:08:33.090Z,15.17
2022-10-12T07:11:01.545Z,17.70
2022-10-12T07:13:30.326Z,14.57
2022-10-12T07:15:57.795Z,19.67
2022-10-12T07:18:25.351Z,16.33
2022-10-12T07:20:55.017Z,18.33
2022-10-12T07:23:22.450Z,22.00
2022-10-12T07:25:50.139Z,17.80
2022-10-12T07:28:17.779Z,16.70
2022-10-12T07:30:46.831Z,16.90
2022-10-12T07:33:14.258Z,17.90
2022-10-12T07:36:03.173Z,15.50
2022-10-12T07:38:29.225Z,20.87
2022-10-12T07:40:59.241Z,14.77
2022-10-12T07:43:26.801Z,19.07
2022-10-12T07:45:55.833Z,16.30
2022-10-12T07:48:23.705Z,16.13
2022-10-12T07:50:51.102Z,14.40
2022-10-12T07:53:18.701Z,18.53
2022-10-12T07:55:46.136Z,14.00
2022-10-12T07:58:13.795Z,13.60
2022-10-12T08:00:41.183Z,16.90
2022-10-12T08:03:10.831Z,15.70
2022-10-12T08:05:38.342Z,15.73
2022-10-12T08:08:08.754Z,18.10
2022-10-12T08:10:36.892Z,15.57
2022-10-12T08:13:05.648Z,16.03
2022-10-12T08:15:33.091Z,13.73
2022-10-12T08:18:00.610Z,15.20
2022-10-12T08:20:29.572Z,17.07
2022-10-12T08:22:57.317Z,18.57
2022-10-12T08:25:24.705Z,15.27
2022-10-12T08:27:52.215Z,19.67
2022-10-12T08:30:20.105Z,15.90
2022-10-12T08:32:47.463Z,16.57
2022-10-12T08:35:14.973Z,16.83
2022-10-12T08:37:43.759Z,20.23
2022-10-12T08:40:14.387Z,19.30
2022-10-12T08:42:46.020Z,20.10
2022-10-12T08:45:30.643Z,17.63
2022-10-12T08:48:00.527Z,19.07
2022-10-12T08:50:30.541Z,20.50
2022-10-12T08:53:01.338Z,17.13
2022-10-12T08:55:34.144Z,17.70
2022-10-12T08:58:01.732Z,16.17
2022-10-12T09:00:30.627Z,20.13
2022-10-12T09:03:05.591Z,17.80
2022-10-12T09:05:35.908Z,17.13
2022-10-12T09:08:07.880Z,17.60
2022-10-12T09:10:42.571Z,15.27
2022-10-12T09:13:14.860Z,15.83
2022-10-12T09:15:45.287Z,19.53
2022-10-12T09:18:16.929Z,20.37
2022-10-12T09:20:47.570Z,19.07
2022-10-12T09:23:23.931Z,19.70
2022-10-12T09:25:51.392Z,15.90
2022-10-12T09:28:22.816Z,21.33
2022-10-12T09:30:58.221Z,15.57
2022-10-12T09:33:27.566Z,15.60
2022-10-12T09:35:56.172Z,16.85
2022-10-12T09:38:25.397Z,20.07
2022-10-12T09:40:52.884Z,16.92
2022-10-12T09:43:20.344Z,17.52
2022-10-12T09:45:48.805Z,17.08
2022-10-12T09:48:17.971Z,17.60
2022-10-12T09:50:46.677Z,22.38
2022-10-12T09:53:16.059Z,17.00
2022-10-12T09:55:52.678Z,18.00
2022-10-12T09:58:21.313Z,23.40
2022-10-12T10:01:11.554Z,17.42
2022-10-12T10:03:39.048Z,16.30
2022-10-12T10:06:06.813Z,19.83
2022-10-12T10:08:40.504Z,17.08
2022-10-12T10:11:14.017Z,18.05
2022-10-12T10:13:47.328Z,17.15
2022-10-12T10:16:14.816Z,17.27
2022-10-12T10:18:44.104Z,17.13
2022-10-12T10:21:12.115Z,18.48
2022-10-12T10:23:43.378Z,17.85
2022-10-12T10:26:13.686Z,17.13
2022-10-12T10:28:42.014Z,20.45
2022-10-12T10:31:21.300Z,18.60
2022-10-12T10:34:04.148Z,20.75
2022-10-12T10:36:33.057Z,15.27
2022-10-12T10:39:02.376Z,17.83
2022-10-12T10:41:36.646Z,14.43
2022-10-12T10:44:04.560Z,14.27
2022-10-12T10:46:33.335Z,20.10
2022-10-12T10:49:06.406Z,15.13
2022-10-12T10:51:41.527Z,16.67
2022-10-12T10:54:15.693Z,17.48
2022-10-12T10:56:46.543Z,16.63
2022-10-12T10:59:17.792Z,16.77
2022-10-12T11:01:52.292Z,18.55
2022-10-12T11:04:21.952Z,15.07
2022-10-12T11:06:51.515Z,15.00
2022-10-12T11:09:20.990Z,17.73
2022-10-12T11:11:55.090Z,17.10
2022-10-12T11:14:26.275Z,18.70
2022-10-12T11:16:56.665Z,14.43
2022-10-12T11:19:31.308Z,14.73
2022-10-12T11:22:00.472Z,16.10
2022-10-12T11:24:29.484Z,16.45
2022-10-12T11:27:03.574Z,14.20
2022-10-12T11:29:31.126Z,15.00
2022-10-12T11:32:03.116Z,14.05
2022-10-12T11:34:32.398Z,19.70
2022-10-12T11:37:19.538Z,16.52
2022-10-12T11:39:53.633Z,14.35
2022-10-12T11:42:26.516Z,14.88
2022-10-12T11:44:54.475Z,14.48
2022-10-12T11:47:27.020Z,15.50
2022-10-12T11:49:56.684Z,15.73
2022-10-12T11:52:29.093Z,14.88
2022-10-12T11:55:00.706Z,15.00
2022-10-12T11:57:31.012Z,17.92
2022-10-12T12:00:00.852Z,12.88
2022-10-12T12:02:30.214Z,13.25
2022-10-12T12:04:58.891Z,15.15
2022-10-12T12:07:46.010Z,15.70
2022-10-12T12:10:30.694Z,15.13
2022-10-12T12:13:23.331Z,13.95
2022-10-12T12:16:14.848Z,12.38
2022-10-12T12:19:00.905Z,13.50
2022-10-12T12:21:28.462Z,15.20
2022-10-12T12:23:56.634Z,15.38
2022-10-12T12:26:26.107Z,13.30
2022-10-12T12:29:09.348Z,16.13
2022-10-12T12:31:36.973Z,12.25
2022-10-12T12:34:05.147Z,12.95
2022-10-12T12:36:33.800Z,14.23
2022-10-12T12:39:02.094Z,11.82
2022-10-12T12:41:51.985Z,15.32
2022-10-12T12:44:37.920Z,15.50
2022-10-12T12:47:44.121Z,15.55
2022-10-12T12:50:28.900Z,15.30
2022-10-12T12:53:01.678Z,20.27
2022-10-12T12:56:02.342Z,17.67
2022-10-12T12:58:40.118Z,13.05
2022-10-12T13:01:17.954Z,13.77
2022-10-12T13:04:05.693Z,12.73
2022-10-12T13:06:54.163Z,12.45
2022-10-12T13:09:39.601Z,13.65
2022-10-12T13:12:14.568Z,16.05
2022-10-12T13:14:50.123Z,12.50
2022-10-12T13:17:33.297Z,11.82
2022-10-12T13:20:02.291Z,14.05
2022-10-12T13:22:33.024Z,12.35
2022-10-12T13:25:03.151Z,11.93
2022-10-12T13:27:34.107Z,12.50
2022-10-12T13:30:05.572Z,12.50
2022-10-12T13:32:41.397Z,11.65
2022-10-12T13:35:14.130Z,11.18
2022-10-12T13:37:41.826Z,9.35
2022-10-12T13:40:24.351Z,11.57
2022-10-12T13:42:51.991Z,10.48
2022-10-12T13:45:20.632Z,12.98
2022-10-12T13:47:49.684Z,13.18
2022-10-12T13:50:18.464Z,11.63
2022-10-12T13:52:53.133Z,16.80
2022-10-12T13:55:25.357Z,13.50
2022-10-12T13:57:53.061Z,16.23
2022-10-12T14:00:23.927Z,14.90
2022-10-12T14:02:57.522Z,16.67
2022-10-12T14:05:26.370Z,18.25
2022-10-12T14:07:55.759Z,16.98
2022-10-12T14:10:25.690Z,13.88
2022-10-12T14:12:54.284Z,17.73
2022-10-12T14:15:22.743Z,14.75
2022-10-12T14:17:52.412Z,16.88
2022-10-12T14:20:28.289Z,18.05
2022-10-12T14:22:56.609Z,17.27
2022-10-12T14:25:24.960Z,14.85
2022-10-12T14:27:55.577Z,16.23
2022-10-12T14:30:24.013Z,15.38
2022-10-12T14:32:55.041Z,18.23
2022-10-12T14:35:28.822Z,17.23
2022-10-12T14:37:57.101Z,16.90
2022-10-12T14:40:35.527Z,18.37
2022-10-12T14:43:04.745Z,18.95
2022-10-12T14:45:33.793Z,15.70
2022-10-12T14:48:01.710Z,16.40
2022-10-12T14:50:31.746Z,17.80
2022-10-12T14:53:01.223Z,21.52
2022-10-12T14:55:29.421Z,18.73
2022-10-12T14:57:57.113Z,19.90
2022-10-12T15:00:25.637Z,20.17
2022-10-12T15:02:53.494Z,20.07
2022-10-12T15:05:22.645Z,22.23
2022-10-12T15:07:51.714Z,21.40
2022-10-12T15:10:20.873Z,21.10
2022-10-12T15:12:48.555Z,20.23
2022-10-12T15:15:25.332Z,22.87
2022-10-12T15:17:55.574Z,23.47
2022-10-12T15:20:23.024Z,21.73
2022-10-12T15:22:51.832Z,21.83
2022-10-12T15:25:21.492Z,25.47
2022-10-12T15:27:48.953Z,24.57
2022-10-12T15:30:17.021Z,23.40
2022-10-12T15:32:44.492Z,27.77
2022-10-12T15:35:21.710Z,24.70
2022-10-12T15:37:49.738Z,27.60
2022-10-12T15:40:19.382Z,26.60
2022-10-12T15:42:47.381Z,23.93
2022-10-12T15:45:20.454Z,27.93
2022-10-12T15:47:48.563Z,23.90
2022-10-12T15:50:16.398Z,28.27
2022-10-12T15:52:44.022Z,26.83
2022-10-12T15:55:14.207Z,27.87
2022-10-12T15:57:43.130Z,31.13
2022-10-12T16:00:11.358Z,28.47
2022-10-12T16:02:38.968Z,26.80
2022-10-12T16:05:11.270Z,31.63
2022-10-12T16:07:38.948Z,29.57
2022-10-12T16:10:06.918Z,29.03
2022-10-12T16:12:34.435Z,27.10
2022-10-12T16:15:03.428Z,30.30
2022-10-12T16:17:30.983Z,31.40
2022-10-12T16:19:58.622Z,30.80
2022-10-12T16:22:26.202Z,27.87
2022-10-12T16:24:53.871Z,28.67
2022-10-12T16:27:21.444Z,27.97
2022-10-12T16:29:49.102Z,28.10
2022-10-12T16:32:18.002Z,28.03
2022-10-12T16:34:45.533Z,27.80
2022-10-12T16:37:13.024Z,28.07
2022-10-12T16:39:40.545Z,30.27
2022-10-12T16:42:08.098Z,29.50
2022-10-12T16:44:35.984Z,28.43
2022-10-12T16:47:03.463Z,29.27
2022-10-12T16:49:32.471Z,28.90
2022-10-12T16:52:00.006Z,28.77
2022-10-12T16:54:28.926Z,31.00
2022-10-12T16:56:56.455Z,27.87
2022-10-12T16:59:24.197Z,28.83
2022-10-12T17:01:51.697Z,25.43
2022-10-12T17:04:19.712Z,31.10
2022-10-12T17:06:49.278Z,34.50
2022-10-12T17:09:17.375Z,32.67
2022-10-12T17:11:44.965Z,31.50
2022-10-12T17:14:13.946Z,33.40
2022-10-12T17:16:50.646Z,32.67
2022-10-12T17:19:18.400Z,30.93
2022-10-12T17:21:47.505Z,27.43
2022-10-12T17:24:17.452Z,33.13
2022-10-12T17:26:45.388Z,37.73
2022-10-12T17:29:13.980Z,34.87
2022-10-12T17:31:41.638Z,32.17
2022-10-12T17:34:10.280Z,33.90
2022-10-12T17:36:37.883Z,33.47
2022-10-12T17:39:05.425Z,35.37
2022-10-12T17:41:35.071Z,37.00
2022-10-12T17:44:02.628Z,38.33
2022-10-12T17:46:30.239Z,37.20
2022-10-12T17:48:59.348Z,34.60
2022-10-12T17:51:27.127Z,34.53
2022-10-12T17:53:54.743Z,39.63
2022-10-12T17:56:22.793Z,36.33
2022-10-12T17:58:55.029Z,36.07
2022-10-12T18:01:22.566Z,35.07
2022-10-12T18:03:50.967Z,36.70
2022-10-12T18:06:20.223Z,33.00
2022-10-12T18:08:47.989Z,34.23
2022-10-12T18:11:16.726Z,35.97
2022-10-12T18:13:46.343Z,36.87
2022-10-12T18:16:15.620Z,37.13
2022-10-12T18:18:43.778Z,36.83
2022-10-12T18:21:13.110Z,41.77
2022-10-12T18:23:40.947Z,36.93
2022-10-12T18:26:09.152Z,39.80
2022-10-12T18:28:37.121Z,37.83
2022-10-12T18:31:04.832Z,37.97
2022-10-12T18:33:34.180Z,41.87
2022-10-12T18:36:05.231Z,40.53
2022-10-12T18:38:32.945Z,37.00
2022-10-12T18:41:03.970Z,36.13
2022-10-12T18:43:31.395Z,40.50
2022-10-12T18:45:58.999Z,38.17
2022-10-12T18:48:26.722Z,46.00
2022-10-12T18:50:55.714Z,45.27
2022-10-12T18:53:27.173Z,49.83
2022-10-12T18:55:54.796Z,47.00
2022-10-12T18:58:22.387Z,43.20
2022-10-12T19:00:49.939Z,44.03
2022-10-12T19:03:17.580Z,46.83
2022-10-12T19:05:45.169Z,43.90
2022-10-12T19:08:14.141Z,42.77
2022-10-12T19:10:42.206Z,47.40
2022-10-12T19:13:09.879Z,47.37
2022-10-12T19:15:37.771Z,44.70
2022-10-12T19:18:05.799Z,48.23
2022-10-12T19:20:33.553Z,46.50
2022-10-12T19:23:01.083Z,44.67
2022-10-12T19:25:30.016Z,49.77
2022-10-12T19:27:57.705Z,44.23
2022-10-12T19:30:29.119Z,42.33
2022-10-12T19:32:58.220Z,40.80
2022-10-12T19:35:28.503Z,42.63
2022-10-12T19:37:56.173Z,41.30
2022-10-12T19:40:24.743Z,43.53
2022-10-12T19:42:56.052Z,43.70
2022-10-12T19:45:24.868Z,41.83
2022-10-12T19:47:52.481Z,44.00
2022-10-12T19:50:20.490Z,44.87
2022-10-12T19:52:48.784Z,44.17
2022-10-12T19:55:18.665Z,44.43
2022-10-12T19:57:48.743Z,43.43
2022-10-12T20:00:18.054Z,40.37
2022-10-12T20:02:45.793Z,42.80
2022-10-12T20:05:13.430Z,39.03
2022-10-12T20:07:40.978Z,34.67
2022-10-12T20:10:08.986Z,34.80
2022-10-12T20:12:36.633Z,40.23
2022-10-12T20:15:04.712Z,38.90
2022-10-12T20:17:33.640Z,39.67
2022-10-12T20:20:07.997Z,35.97
2022-10-12T20:22:36.165Z,36.77
2022-10-12T20:25:09.623Z,36.13
2022-10-12T20:27:37.891Z,39.33
2022-10-12T20:30:06.166Z,36.70
2022-10-12T20:32:36.544Z,38.00
2022-10-12T20:35:05.606Z,38.47
2022-10-12T20:37:33.794Z,39.40
2022-10-12T20:40:03.736Z,38.40
2022-10-12T20:42:31.600Z,36.33
2022-10-12T20:45:01.546Z,38.07
2022-10-12T20:47:29.243Z,38.53
2022-10-12T20:49:58.302Z,36.50
2022-10-12T20:52:25.881Z,35.93
2022-10-12T20:54:54.998Z,38.70
2022-10-12T20:57:25.572Z,35.80
2022-10-12T20:59:53.895Z,36.13
2022-10-12T21:02:21.593Z,36.50
2022-10-12T21:04:49.646Z,33.60
2022-10-12T21:07:18.856Z,36.07
2022-10-12T21:09:46.675Z,38.20
2022-10-12T21:12:14.212Z,31.93
2022-10-12T21:14:41.724Z,30.30
2022-10-12T21:17:09.268Z,34.77
2022-10-12T21:19:36.769Z,34.57
2022-10-12T21:22:04.331Z,33.00
2022-10-12T21:24:33.271Z,34.07
2022-10-12T21:27:00.819Z,35.57
2022-10-12T21:29:28.418Z,33.40
2022-10-12T21:31:55.992Z,34.77
2022-10-12T21:34:23.692Z,33.40
2022-10-12T21:36:51.168Z,32.53
2022-10-12T21:39:18.781Z,38.37
2022-10-12T21:41:47.973Z,34.03
2022-10-12T21:44:15.603Z,36.80
2022-10-12T21:46:43.237Z,37.57
2022-10-12T21:49:14.391Z,38.90
2022-10-12T21:51:41.964Z,35.07
2022-10-12T21:54:09.782Z,40.63
2022-10-12T21:56:37.780Z,36.10
2022-10-12T21:59:07.103Z,41.73
2022-10-12T22:01:35.670Z,41.23
2022-10-12T22:04:04.379Z,45.10
2022-10-12T22:06:32.347Z,36.93
2022-10-12T22:09:00.723Z,39.97
2022-10-12T22:11:29.508Z,35.33
2022-10-12T22:13:58.241Z,39.33
2022-10-12T22:16:28.018Z,36.77
2022-10-12T22:18:57.419Z,38.57
2022-10-12T22:21:25.038Z,41.47
2022-10-12T22:23:52.822Z,39.50
2022-10-12T22:33:18.198Z,42.63
2022-10-12T22:35:52.503Z,37.13
2022-10-12T22:38:20.387Z,42.90
2022-10-12T22:40:54.332Z,40.43
2022-10-12T22:43:21.995Z,42.60
2022-10-12T22:45:49.686Z,43.10
2022-10-12T22:48:18.689Z,42.97
2022-10-12T22:50:46.382Z,47.30
2022-10-12T22:53:14.488Z,42.47
2022-10-12T22:55:41.970Z,39.87
2022-10-12T22:58:09.863Z,39.47
2022-10-12T23:00:37.726Z,36.90
2022-10-12T23:03:05.433Z,38.57
2022-10-12T23:05:34.202Z,37.53
2022-10-12T23:08:01.661Z,38.83
2022-10-12T23:10:30.533Z,37.43
2022-10-12T23:12:58.379Z,38.13
2022-10-12T23:15:25.926Z,39.40
2022-10-12T23:17:54.761Z,39.33
2022-10-12T23:20:22.258Z,35.90
2022-10-12T23:22:51.035Z,40.37
2022-10-12T23:25:18.509Z,38.00
2022-10-12T23:27:45.944Z,38.30
2022-10-12T23:30:13.357Z,38.50
2022-10-12T23:32:40.884Z,40.83
2022-10-12T23:35:08.761Z,37.80
2022-10-12T23:37:37.422Z,38.17
2022-10-12T23:40:08.697Z,36.23
2022-10-12T23:42:38.246Z,37.03
2022-10-12T23:45:05.932Z,34.87
2022-10-12T23:47:33.585Z,40.37
2022-10-12T23:50:01.025Z,41.23
2022-10-12T23:52:29.096Z,38.17
2022-10-12T23:54:56.729Z,38.13
2022-10-12T23:57:45.755Z,36.73
